sensor_id;sensor_type;location;lat;lon;timestamp;P1;durP1;ratioP1;P2;durP2;ratioP2
3995;SDS011;2012;49.794;9.722;2023-02-28T00:00:35;8.40;;;2.80;;
3995;SDS011;2012;49.794;9.722;2023-02-28T00:03:03;4.20;;;3.23;;
3995;SDS011;2012;49.794;9.722;2023-02-28T00:05:30;4.40;;;3.30;;
3995;SDS011;2012;49.794;9.722;2023-02-28T00:07:57;4.10;;;3.67;;
3995;SDS011;2012;49.794;9.722;2023-02-28T00:10:26;7.13;;;3.50;;
3995;SDS011;2012;49.794;9.722;2023-02-28T00:12:55;4.23;;;3.03;;
3995;SDS011;2012;49.794;9.722;2023-02-28T00:15:25;6.13;;;2.87;;
3995;SDS011;2012;49.794;9.722;2023-02-28T00:17:52;3.27;;;3.00;;
3995;SDS011;2012;49.794;9.722;2023-02-28T00:20:19;3.80;;;2.60;;
3995;SDS011;2012;49.794;9.722;2023-02-28T00:22:48;2.10;;;2.00;;
3995;SDS011;2012;49.794;9.722;2023-02-28T00:25:17;3.20;;;2.90;;
3995;SDS011;2012;49.794;9.722;2023-02-28T00:27:46;3.33;;;2.83;;
3995;SDS011;2012;49.794;9.722;2023-02-28T00:30:14;3.97;;;2.87;;
3995;SDS011;2012;49.794;9.722;2023-02-28T00:32:43;3.70;;;3.17;;
3995;SDS011;2012;49.794;9.722;2023-02-28T00:35:11;3.00;;;2.77;;
3995;SDS011;2012;49.794;9.722;2023-02-28T00:37:38;3.20;;;2.40;;
3995;SDS011;2012;49.794;9.722;2023-02-28T00:40:05;3.00;;;2.70;;
3995;SDS011;2012;49.794;9.722;2023-02-28T00:42:33;4.40;;;2.40;;
3995;SDS011;2012;49.794;9.722;2023-02-28T00:45:01;2.93;;;2.23;;
3995;SDS011;2012;49.794;9.722;2023-02-28T00:47:30;5.30;;;2.80;;
3995;SDS011;2012;49.794;9.722;2023-02-28T00:49:59;5.07;;;3.30;;
3995;SDS011;2012;49.794;9.722;2023-02-28T00:52:26;3.83;;;2.80;;
3995;SDS011;2012;49.794;9.722;2023-02-28T00:54:53;2.70;;;2.50;;
3995;SDS011;2012;49.794;9.722;2023-02-28T00:57:20;3.70;;;2.53;;
3995;SDS011;2012;49.794;9.722;2023-02-28T00:59:47;2.90;;;2.67;;
3995;SDS011;2012;49.794;9.722;2023-02-28T01:02:14;4.20;;;3.00;;
3995;SDS011;2012;49.794;9.722;2023-02-28T01:04:40;3.47;;;2.90;;
3995;SDS011;2012;49.794;9.722;2023-02-28T01:07:07;5.23;;;3.00;;
3995;SDS011;2012;49.794;9.722;2023-02-28T01:09:34;3.60;;;3.07;;
3995;SDS011;2012;49.794;9.722;2023-02-28T01:12:01;3.67;;;3.30;;
3995;SDS011;2012;49.794;9.722;2023-02-28T01:14:28;3.20;;;2.90;;
3995;SDS011;2012;49.794;9.722;2023-02-28T01:16:54;4.10;;;3.00;;
3995;SDS011;2012;49.794;9.722;2023-02-28T01:19:21;3.50;;;3.03;;
3995;SDS011;2012;49.794;9.722;2023-02-28T01:21:48;3.23;;;2.73;;
3995;SDS011;2012;49.794;9.722;2023-02-28T01:24:14;3.17;;;2.97;;
3995;SDS011;2012;49.794;9.722;2023-02-28T01:26:41;5.07;;;4.17;;
3995;SDS011;2012;49.794;9.722;2023-02-28T01:29:08;6.33;;;4.53;;
3995;SDS011;2012;49.794;9.722;2023-02-28T01:31:34;4.00;;;3.60;;
3995;SDS011;2012;49.794;9.722;2023-02-28T01:34:02;6.07;;;3.00;;
3995;SDS011;2012;49.794;9.722;2023-02-28T01:36:29;3.23;;;2.93;;
3995;SDS011;2012;49.794;9.722;2023-02-28T01:38:56;2.97;;;2.70;;
3995;SDS011;2012;49.794;9.722;2023-02-28T01:41:25;3.20;;;2.90;;
3995;SDS011;2012;49.794;9.722;2023-02-28T01:43:58;3.70;;;3.10;;
3995;SDS011;2012;49.794;9.722;2023-02-28T01:46:25;3.70;;;3.40;;
3995;SDS011;2012;49.794;9.722;2023-02-28T01:51:48;4.43;;;3.10;;
3995;SDS011;2012;49.794;9.722;2023-02-28T01:54:20;2.60;;;2.47;;
3995;SDS011;2012;49.794;9.722;2023-02-28T01:56:53;3.50;;;3.00;;
3995;SDS011;2012;49.794;9.722;2023-02-28T01:59:33;3.27;;;2.90;;
3995;SDS011;2012;49.794;9.722;2023-02-28T02:02:06;3.13;;;2.60;;
3995;SDS011;2012;49.794;9.722;2023-02-28T02:04:41;3.17;;;2.87;;
3995;SDS011;2012;49.794;9.722;2023-02-28T02:07:16;6.37;;;3.10;;
3995;SDS011;2012;49.794;9.722;2023-02-28T02:09:43;3.50;;;3.20;;
3995;SDS011;2012;49.794;9.722;2023-02-28T02:12:24;4.90;;;3.17;;
3995;SDS011;2012;49.794;9.722;2023-02-28T02:15:06;5.20;;;3.00;;
3995;SDS011;2012;49.794;9.722;2023-02-28T02:17:44;5.60;;;3.80;;
3995;SDS011;2012;49.794;9.722;2023-02-28T02:22:58;4.87;;;2.77;;
3995;SDS011;2012;49.794;9.722;2023-02-28T02:25:49;4.80;;;3.40;;
3995;SDS011;2012;49.794;9.722;2023-02-28T02:31:30;4.43;;;3.53;;
3995;SDS011;2012;49.794;9.722;2023-02-28T02:34:46;4.13;;;3.47;;
3995;SDS011;2012;49.794;9.722;2023-02-28T02:37:01;3.53;;;3.20;;
3995;SDS011;2012;49.794;9.722;2023-02-28T02:40:00;5.40;;;3.83;;
3995;SDS011;2012;49.794;9.722;2023-02-28T02:42:41;4.70;;;3.00;;
3995;SDS011;2012;49.794;9.722;2023-02-28T02:45:19;3.13;;;2.93;;
3995;SDS011;2012;49.794;9.722;2023-02-28T02:47:53;3.30;;;3.00;;
3995;SDS011;2012;49.794;9.722;2023-02-28T02:50:26;3.93;;;2.87;;
3995;SDS011;2012;49.794;9.722;2023-02-28T02:53:00;3.93;;;2.70;;
3995;SDS011;2012;49.794;9.722;2023-02-28T02:55:29;3.37;;;3.00;;
3995;SDS011;2012;49.794;9.722;2023-02-28T02:58:01;3.30;;;3.10;;
3995;SDS011;2012;49.794;9.722;2023-02-28T03:00:36;4.23;;;3.57;;
3995;SDS011;2012;49.794;9.722;2023-02-28T03:03:05;3.93;;;3.20;;
3995;SDS011;2012;49.794;9.722;2023-02-28T03:05:38;3.37;;;3.07;;
3995;SDS011;2012;49.794;9.722;2023-02-28T03:08:12;4.67;;;3.40;;
3995;SDS011;2012;49.794;9.722;2023-02-28T03:10:39;5.10;;;3.70;;
3995;SDS011;2012;49.794;9.722;2023-02-28T03:13:14;3.90;;;3.43;;
3995;SDS011;2012;49.794;9.722;2023-02-28T03:19:23;4.33;;;3.40;;
3995;SDS011;2012;49.794;9.722;2023-02-28T03:25:24;3.97;;;3.50;;
3995;SDS011;2012;49.794;9.722;2023-02-28T03:33:21;4.27;;;3.57;;
3995;SDS011;2012;49.794;9.722;2023-02-28T03:35:54;3.93;;;3.53;;
3995;SDS011;2012;49.794;9.722;2023-02-28T03:41:06;5.10;;;3.63;;
3995;SDS011;2012;49.794;9.722;2023-02-28T03:43:39;4.43;;;3.63;;
3995;SDS011;2012;49.794;9.722;2023-02-28T03:46:12;5.07;;;3.40;;
3995;SDS011;2012;49.794;9.722;2023-02-28T03:48:47;5.70;;;3.90;;
3995;SDS011;2012;49.794;9.722;2023-02-28T03:51:19;3.50;;;3.20;;
3995;SDS011;2012;49.794;9.722;2023-02-28T03:53:53;4.80;;;3.80;;
3995;SDS011;2012;49.794;9.722;2023-02-28T03:56:26;6.13;;;3.80;;
3995;SDS011;2012;49.794;9.722;2023-02-28T03:59:15;5.53;;;3.87;;
3995;SDS011;2012;49.794;9.722;2023-02-28T04:01:47;7.50;;;3.80;;
3995;SDS011;2012;49.794;9.722;2023-02-28T04:04:15;4.97;;;4.23;;
3995;SDS011;2012;49.794;9.722;2023-02-28T04:06:43;5.90;;;4.27;;
3995;SDS011;2012;49.794;9.722;2023-02-28T04:09:12;3.77;;;3.47;;
3995;SDS011;2012;49.794;9.722;2023-02-28T04:11:42;3.83;;;3.40;;
3995;SDS011;2012;49.794;9.722;2023-02-28T04:14:11;5.90;;;3.27;;
3995;SDS011;2012;49.794;9.722;2023-02-28T04:16:39;6.73;;;4.03;;
3995;SDS011;2012;49.794;9.722;2023-02-28T04:19:08;4.50;;;3.63;;
3995;SDS011;2012;49.794;9.722;2023-02-28T04:21:37;4.10;;;3.40;;
3995;SDS011;2012;49.794;9.722;2023-02-28T04:24:06;5.37;;;4.20;;
3995;SDS011;2012;49.794;9.722;2023-02-28T04:26:36;4.10;;;3.73;;
3995;SDS011;2012;49.794;9.722;2023-02-28T04:29:03;4.43;;;3.47;;
3995;SDS011;2012;49.794;9.722;2023-02-28T04:31:33;6.07;;;4.23;;
3995;SDS011;2012;49.794;9.722;2023-02-28T04:34:00;3.90;;;3.17;;
3995;SDS011;2012;49.794;9.722;2023-02-28T04:36:27;4.37;;;3.97;;
3995;SDS011;2012;49.794;9.722;2023-02-28T04:38:54;3.53;;;3.23;;
3995;SDS011;2012;49.794;9.722;2023-02-28T04:41:22;6.87;;;4.10;;
3995;SDS011;2012;49.794;9.722;2023-02-28T04:43:50;4.77;;;3.60;;
3995;SDS011;2012;49.794;9.722;2023-02-28T04:46:18;5.07;;;4.13;;
3995;SDS011;2012;49.794;9.722;2023-02-28T04:48:46;4.80;;;3.67;;
3995;SDS011;2012;49.794;9.722;2023-02-28T04:51:14;3.67;;;3.30;;
3995;SDS011;2012;49.794;9.722;2023-02-28T04:53:42;4.10;;;3.50;;
3995;SDS011;2012;49.794;9.722;2023-02-28T04:56:13;6.37;;;3.63;;
3995;SDS011;2012;49.794;9.722;2023-02-28T04:58:41;4.67;;;3.80;;
3995;SDS011;2012;49.794;9.722;2023-02-28T05:03:54;3.77;;;3.40;;
3995;SDS011;2012;49.794;9.722;2023-02-28T05:06:23;3.80;;;3.50;;
3995;SDS011;2012;49.794;9.722;2023-02-28T05:08:53;5.33;;;3.93;;
3995;SDS011;2012;49.794;9.722;2023-02-28T05:11:24;3.87;;;3.47;;
3995;SDS011;2012;49.794;9.722;2023-02-28T05:13:55;4.30;;;3.23;;
3995;SDS011;2012;49.794;9.722;2023-02-28T05:16:22;5.77;;;4.37;;
3995;SDS011;2012;49.794;9.722;2023-02-28T05:18:49;7.00;;;4.10;;
3995;SDS011;2012;49.794;9.722;2023-02-28T05:23:49;4.53;;;3.87;;
3995;SDS011;2012;49.794;9.722;2023-02-28T05:26:17;4.40;;;3.33;;
3995;SDS011;2012;49.794;9.722;2023-02-28T05:28:43;6.47;;;3.70;;
3995;SDS011;2012;49.794;9.722;2023-02-28T05:31:10;6.43;;;3.73;;
3995;SDS011;2012;49.794;9.722;2023-02-28T05:33:38;8.03;;;4.50;;
3995;SDS011;2012;49.794;9.722;2023-02-28T05:36:05;5.43;;;4.23;;
3995;SDS011;2012;49.794;9.722;2023-02-28T05:38:32;5.33;;;3.90;;
3995;SDS011;2012;49.794;9.722;2023-02-28T05:40:59;6.93;;;5.03;;
3995;SDS011;2012;49.794;9.722;2023-02-28T05:43:26;8.90;;;6.90;;
3995;SDS011;2012;49.794;9.722;2023-02-28T05:45:52;9.80;;;5.40;;
3995;SDS011;2012;49.794;9.722;2023-02-28T05:48:19;7.50;;;5.50;;
3995;SDS011;2012;49.794;9.722;2023-02-28T05:50:46;7.03;;;4.70;;
3995;SDS011;2012;49.794;9.722;2023-02-28T05:53:13;7.17;;;3.90;;
3995;SDS011;2012;49.794;9.722;2023-02-28T05:55:40;3.50;;;3.20;;
3995;SDS011;2012;49.794;9.722;2023-02-28T05:58:07;4.57;;;3.50;;
3995;SDS011;2012;49.794;9.722;2023-02-28T06:00:33;5.30;;;3.83;;
3995;SDS011;2012;49.794;9.722;2023-02-28T06:03:00;5.90;;;3.90;;
3995;SDS011;2012;49.794;9.722;2023-02-28T06:05:28;3.80;;;3.50;;
3995;SDS011;2012;49.794;9.722;2023-02-28T06:07:55;4.87;;;3.10;;
3995;SDS011;2012;49.794;9.722;2023-02-28T06:10:22;3.27;;;2.97;;
3995;SDS011;2012;49.794;9.722;2023-02-28T06:12:48;5.20;;;4.10;;
3995;SDS011;2012;49.794;9.722;2023-02-28T06:15:16;3.23;;;2.90;;
3995;SDS011;2012;49.794;9.722;2023-02-28T06:17:43;4.37;;;3.60;;
3995;SDS011;2012;49.794;9.722;2023-02-28T06:20:11;4.47;;;3.43;;
3995;SDS011;2012;49.794;9.722;2023-02-28T06:22:39;5.00;;;3.30;;
3995;SDS011;2012;49.794;9.722;2023-02-28T06:25:06;4.10;;;3.30;;
3995;SDS011;2012;49.794;9.722;2023-02-28T06:27:33;5.00;;;3.40;;
3995;SDS011;2012;49.794;9.722;2023-02-28T06:30:00;5.37;;;3.87;;
3995;SDS011;2012;49.794;9.722;2023-02-28T06:32:26;6.20;;;5.07;;
3995;SDS011;2012;49.794;9.722;2023-02-28T06:34:54;5.73;;;3.60;;
3995;SDS011;2012;49.794;9.722;2023-02-28T06:37:23;8.30;;;3.27;;
3995;SDS011;2012;49.794;9.722;2023-02-28T06:39:52;3.63;;;2.97;;
3995;SDS011;2012;49.794;9.722;2023-02-28T06:42:22;5.70;;;3.60;;
3995;SDS011;2012;49.794;9.722;2023-02-28T06:44:55;5.30;;;4.10;;
3995;SDS011;2012;49.794;9.722;2023-02-28T06:47:22;7.17;;;4.20;;
3995;SDS011;2012;49.794;9.722;2023-02-28T06:49:49;11.50;;;4.10;;
3995;SDS011;2012;49.794;9.722;2023-02-28T06:52:16;10.40;;;3.80;;
3995;SDS011;2012;49.794;9.722;2023-02-28T06:54:43;7.00;;;4.20;;
3995;SDS011;2012;49.794;9.722;2023-02-28T06:57:09;5.80;;;4.00;;
3995;SDS011;2012;49.794;9.722;2023-02-28T06:59:36;10.77;;;5.17;;
3995;SDS011;2012;49.794;9.722;2023-02-28T07:02:03;10.00;;;5.30;;
3995;SDS011;2012;49.794;9.722;2023-02-28T07:04:32;10.83;;;6.30;;
3995;SDS011;2012;49.794;9.722;2023-02-28T07:06:59;8.60;;;4.33;;
3995;SDS011;2012;49.794;9.722;2023-02-28T07:09:25;7.67;;;4.40;;
3995;SDS011;2012;49.794;9.722;2023-02-28T07:11:56;3.57;;;3.27;;
3995;SDS011;2012;49.794;9.722;2023-02-28T07:14:22;9.90;;;5.03;;
3995;SDS011;2012;49.794;9.722;2023-02-28T07:16:49;6.50;;;4.43;;
3995;SDS011;2012;49.794;9.722;2023-02-28T07:19:16;6.37;;;3.93;;
3995;SDS011;2012;49.794;9.722;2023-02-28T07:21:43;6.93;;;3.80;;
3995;SDS011;2012;49.794;9.722;2023-02-28T07:24:09;7.10;;;4.40;;
3995;SDS011;2012;49.794;9.722;2023-02-28T07:26:36;6.27;;;4.33;;
3995;SDS011;2012;49.794;9.722;2023-02-28T07:29:03;6.90;;;4.67;;
3995;SDS011;2012;49.794;9.722;2023-02-28T07:31:30;6.33;;;4.97;;
3995;SDS011;2012;49.794;9.722;2023-02-28T07:33:57;6.90;;;4.40;;
3995;SDS011;2012;49.794;9.722;2023-02-28T07:36:24;5.57;;;4.27;;
3995;SDS011;2012;49.794;9.722;2023-02-28T07:38:51;7.40;;;4.60;;
3995;SDS011;2012;49.794;9.722;2023-02-28T07:41:19;7.30;;;5.13;;
3995;SDS011;2012;49.794;9.722;2023-02-28T07:43:47;6.27;;;4.63;;
3995;SDS011;2012;49.794;9.722;2023-02-28T07:46:15;8.60;;;4.30;;
3995;SDS011;2012;49.794;9.722;2023-02-28T07:48:43;6.90;;;4.60;;
3995;SDS011;2012;49.794;9.722;2023-02-28T07:51:10;5.23;;;4.23;;
3995;SDS011;2012;49.794;9.722;2023-02-28T07:53:37;5.70;;;4.67;;
3995;SDS011;2012;49.794;9.722;2023-02-28T07:56:03;5.10;;;4.60;;
3995;SDS011;2012;49.794;9.722;2023-02-28T07:58:31;7.67;;;5.23;;
3995;SDS011;2012;49.794;9.722;2023-02-28T08:01:04;6.60;;;4.87;;
3995;SDS011;2012;49.794;9.722;2023-02-28T08:03:33;7.40;;;4.37;;
3995;SDS011;2012;49.794;9.722;2023-02-28T08:06:00;4.80;;;4.23;;
3995;SDS011;2012;49.794;9.722;2023-02-28T08:08:28;7.90;;;4.70;;
3995;SDS011;2012;49.794;9.722;2023-02-28T08:11:01;6.87;;;4.40;;
3995;SDS011;2012;49.794;9.722;2023-02-28T08:13:29;7.13;;;4.60;;
3995;SDS011;2012;49.794;9.722;2023-02-28T08:15:56;5.13;;;3.97;;
3995;SDS011;2012;49.794;9.722;2023-02-28T08:18:23;8.00;;;4.80;;
3995;SDS011;2012;49.794;9.722;2023-02-28T08:20:50;8.47;;;4.87;;
3995;SDS011;2012;49.794;9.722;2023-02-28T08:23:17;7.10;;;4.80;;
3995;SDS011;2012;49.794;9.722;2023-02-28T08:25:44;7.27;;;4.87;;
3995;SDS011;2012;49.794;9.722;2023-02-28T08:28:11;9.30;;;4.90;;
3995;SDS011;2012;49.794;9.722;2023-02-28T08:30:37;7.97;;;5.20;;
3995;SDS011;2012;49.794;9.722;2023-02-28T08:33:07;8.87;;;5.97;;
3995;SDS011;2012;49.794;9.722;2023-02-28T08:35:35;10.37;;;5.67;;
3995;SDS011;2012;49.794;9.722;2023-02-28T08:38:03;8.20;;;5.23;;
3995;SDS011;2012;49.794;9.722;2023-02-28T08:40:29;5.30;;;4.53;;
3995;SDS011;2012;49.794;9.722;2023-02-28T08:42:56;6.60;;;5.07;;
3995;SDS011;2012;49.794;9.722;2023-02-28T08:45:24;11.20;;;5.33;;
3995;SDS011;2012;49.794;9.722;2023-02-28T08:47:51;7.00;;;5.10;;
3995;SDS011;2012;49.794;9.722;2023-02-28T08:50:21;11.47;;;5.83;;
3995;SDS011;2012;49.794;9.722;2023-02-28T08:52:48;9.40;;;5.90;;
3995;SDS011;2012;49.794;9.722;2023-02-28T08:55:15;4.93;;;4.37;;
3995;SDS011;2012;49.794;9.722;2023-02-28T08:57:41;13.20;;;6.07;;
3995;SDS011;2012;49.794;9.722;2023-02-28T09:00:08;8.50;;;5.30;;
3995;SDS011;2012;49.794;9.722;2023-02-28T09:02:39;7.20;;;5.07;;
3995;SDS011;2012;49.794;9.722;2023-02-28T09:05:06;11.23;;;5.17;;
3995;SDS011;2012;49.794;9.722;2023-02-28T09:07:34;8.83;;;5.40;;
3995;SDS011;2012;49.794;9.722;2023-02-28T09:10:01;11.30;;;5.90;;
3995;SDS011;2012;49.794;9.722;2023-02-28T09:12:28;10.93;;;5.20;;
3995;SDS011;2012;49.794;9.722;2023-02-28T09:15:00;6.47;;;5.60;;
3995;SDS011;2012;49.794;9.722;2023-02-28T09:17:27;7.17;;;5.67;;
3995;SDS011;2012;49.794;9.722;2023-02-28T09:19:56;7.80;;;5.50;;
3995;SDS011;2012;49.794;9.722;2023-02-28T09:22:23;5.30;;;4.47;;
3995;SDS011;2012;49.794;9.722;2023-02-28T09:24:50;8.67;;;5.93;;
3995;SDS011;2012;49.794;9.722;2023-02-28T09:27:17;8.90;;;5.47;;
3995;SDS011;2012;49.794;9.722;2023-02-28T09:29:44;11.20;;;5.70;;
3995;SDS011;2012;49.794;9.722;2023-02-28T09:32:10;11.53;;;6.37;;
3995;SDS011;2012;49.794;9.722;2023-02-28T09:34:37;9.10;;;5.50;;
3995;SDS011;2012;49.794;9.722;2023-02-28T09:37:04;7.50;;;5.60;;
3995;SDS011;2012;49.794;9.722;2023-02-28T09:39:31;10.40;;;6.40;;
3995;SDS011;2012;49.794;9.722;2023-02-28T09:41:58;6.90;;;5.50;;
3995;SDS011;2012;49.794;9.722;2023-02-28T09:44:27;7.43;;;5.50;;
3995;SDS011;2012;49.794;9.722;2023-02-28T09:46:59;10.93;;;5.30;;
3995;SDS011;2012;49.794;9.722;2023-02-28T09:49:37;8.43;;;5.50;;
3995;SDS011;2012;49.794;9.722;2023-02-28T09:52:10;7.70;;;5.90;;
3995;SDS011;2012;49.794;9.722;2023-02-28T09:54:46;11.90;;;6.13;;
3995;SDS011;2012;49.794;9.722;2023-02-28T10:05:20;8.40;;;5.73;;
3995;SDS011;2012;49.794;9.722;2023-02-28T10:10:39;9.13;;;5.50;;
3995;SDS011;2012;49.794;9.722;2023-02-28T10:13:15;12.70;;;6.03;;
3995;SDS011;2012;49.794;9.722;2023-02-28T10:15:58;7.37;;;6.23;;
3995;SDS011;2012;49.794;9.722;2023-02-28T10:21:17;8.60;;;5.63;;
3995;SDS011;2012;49.794;9.722;2023-02-28T10:23:48;10.00;;;6.37;;
3995;SDS011;2012;49.794;9.722;2023-02-28T10:26:17;25.47;;;6.80;;
3995;SDS011;2012;49.794;9.722;2023-02-28T10:28:44;8.37;;;6.10;;
3995;SDS011;2012;49.794;9.722;2023-02-28T10:33:44;7.73;;;5.60;;
3995;SDS011;2012;49.794;9.722;2023-02-28T10:36:13;9.63;;;6.43;;
3995;SDS011;2012;49.794;9.722;2023-02-28T10:38:43;7.60;;;6.20;;
3995;SDS011;2012;49.794;9.722;2023-02-28T10:41:13;12.60;;;7.50;;
3995;SDS011;2012;49.794;9.722;2023-02-28T10:43:45;8.90;;;5.60;;
3995;SDS011;2012;49.794;9.722;2023-02-28T10:46:15;13.50;;;7.20;;
3995;SDS011;2012;49.794;9.722;2023-02-28T10:51:32;13.40;;;6.30;;
3995;SDS011;2012;49.794;9.722;2023-02-28T10:54:03;7.27;;;6.30;;
3995;SDS011;2012;49.794;9.722;2023-02-28T10:56:31;11.60;;;6.57;;
3995;SDS011;2012;49.794;9.722;2023-02-28T10:59:03;8.63;;;6.03;;
3995;SDS011;2012;49.794;9.722;2023-02-28T11:01:52;8.43;;;6.30;;
3995;SDS011;2012;49.794;9.722;2023-02-28T11:09:36;8.20;;;6.93;;
3995;SDS011;2012;49.794;9.722;2023-02-28T11:12:07;8.87;;;6.23;;
3995;SDS011;2012;49.794;9.722;2023-02-28T11:14:52;11.17;;;6.37;;
3995;SDS011;2012;49.794;9.722;2023-02-28T11:17:31;11.07;;;8.70;;
3995;SDS011;2012;49.794;9.722;2023-02-28T11:20:00;9.03;;;6.33;;
3995;SDS011;2012;49.794;9.722;2023-02-28T11:22:31;9.37;;;6.80;;
3995;SDS011;2012;49.794;9.722;2023-02-28T11:25:16;7.80;;;6.00;;
3995;SDS011;2012;49.794;9.722;2023-02-28T11:27:49;9.97;;;6.40;;
3995;SDS011;2012;49.794;9.722;2023-02-28T11:33:00;8.30;;;6.10;;
3995;SDS011;2012;49.794;9.722;2023-02-28T11:35:44;7.80;;;5.80;;
3995;SDS011;2012;49.794;9.722;2023-02-28T11:38:14;10.27;;;7.13;;
3995;SDS011;2012;49.794;9.722;2023-02-28T11:51:29;9.17;;;6.20;;
3995;SDS011;2012;49.794;9.722;2023-02-28T11:56:52;10.33;;;6.67;;
3995;SDS011;2012;49.794;9.722;2023-02-28T11:59:38;12.60;;;6.97;;
3995;SDS011;2012;49.794;9.722;2023-02-28T12:07:47;9.17;;;6.67;;
3995;SDS011;2012;49.794;9.722;2023-02-28T12:10:35;8.57;;;6.27;;
3995;SDS011;2012;49.794;9.722;2023-02-28T12:13:26;8.07;;;5.93;;
3995;SDS011;2012;49.794;9.722;2023-02-28T12:25:02;11.37;;;7.90;;
3995;SDS011;2012;49.794;9.722;2023-02-28T12:27:49;12.53;;;7.47;;
3995;SDS011;2012;49.794;9.722;2023-02-28T12:30:21;14.93;;;9.37;;
3995;SDS011;2012;49.794;9.722;2023-02-28T12:32:56;22.63;;;10.27;;
3995;SDS011;2012;49.794;9.722;2023-02-28T12:38:22;10.60;;;6.80;;
3995;SDS011;2012;49.794;9.722;2023-02-28T12:43:53;13.20;;;6.13;;
3995;SDS011;2012;49.794;9.722;2023-02-28T12:46:32;12.20;;;7.10;;
3995;SDS011;2012;49.794;9.722;2023-02-28T12:49:06;13.60;;;7.20;;
3995;SDS011;2012;49.794;9.722;2023-02-28T12:51:37;22.00;;;6.83;;
3995;SDS011;2012;49.794;9.722;2023-02-28T12:54:13;8.20;;;6.50;;
3995;SDS011;2012;49.794;9.722;2023-02-28T12:59:25;13.47;;;7.00;;
3995;SDS011;2012;49.794;9.722;2023-02-28T13:10:50;8.80;;;6.70;;
3995;SDS011;2012;49.794;9.722;2023-02-28T13:13:24;19.73;;;7.47;;
3995;SDS011;2012;49.794;9.722;2023-02-28T13:15:59;10.97;;;7.13;;
3995;SDS011;2012;49.794;9.722;2023-02-28T13:18:32;9.77;;;6.97;;
3995;SDS011;2012;49.794;9.722;2023-02-28T13:21:04;11.30;;;7.07;;
3995;SDS011;2012;49.794;9.722;2023-02-28T13:26:17;18.00;;;8.67;;
3995;SDS011;2012;49.794;9.722;2023-02-28T13:29:00;12.83;;;7.37;;
3995;SDS011;2012;49.794;9.722;2023-02-28T13:31:30;12.60;;;7.37;;
3995;SDS011;2012;49.794;9.722;2023-02-28T13:34:12;9.50;;;6.90;;
3995;SDS011;2012;49.794;9.722;2023-02-28T13:36:41;10.90;;;6.73;;
3995;SDS011;2012;49.794;9.722;2023-02-28T13:55:28;10.00;;;6.80;;
3995;SDS011;2012;49.794;9.722;2023-02-28T14:03:54;9.57;;;7.13;;
3995;SDS011;2012;49.794;9.722;2023-02-28T14:06:26;12.17;;;6.50;;
3995;SDS011;2012;49.794;9.722;2023-02-28T14:08:58;9.70;;;7.03;;
3995;SDS011;2012;49.794;9.722;2023-02-28T14:11:31;8.73;;;6.57;;
3995;SDS011;2012;49.794;9.722;2023-02-28T14:14:00;9.70;;;7.17;;
3995;SDS011;2012;49.794;9.722;2023-02-28T14:16:39;9.60;;;6.80;;
3995;SDS011;2012;49.794;9.722;2023-02-28T14:38:46;8.33;;;6.03;;
3995;SDS011;2012;49.794;9.722;2023-02-28T14:41:22;8.87;;;5.43;;
3995;SDS011;2012;49.794;9.722;2023-02-28T14:44:02;7.20;;;5.40;;
3995;SDS011;2012;49.794;9.722;2023-02-28T14:46:39;9.90;;;6.70;;
3995;SDS011;2012;49.794;9.722;2023-02-28T14:49:18;6.93;;;5.53;;
3995;SDS011;2012;49.794;9.722;2023-02-28T14:51:45;7.60;;;5.80;;
3995;SDS011;2012;49.794;9.722;2023-02-28T14:54:14;7.70;;;5.93;;
3995;SDS011;2012;49.794;9.722;2023-02-28T14:56:43;8.93;;;6.30;;
3995;SDS011;2012;49.794;9.722;2023-02-28T14:59:29;6.17;;;5.30;;
3995;SDS011;2012;49.794;9.722;2023-02-28T15:04:59;9.13;;;7.00;;
3995;SDS011;2012;49.794;9.722;2023-02-28T15:07:27;10.77;;;6.43;;
3995;SDS011;2012;49.794;9.722;2023-02-28T15:10:08;10.40;;;7.03;;
3995;SDS011;2012;49.794;9.722;2023-02-28T15:18:33;11.80;;;7.30;;
3995;SDS011;2012;49.794;9.722;2023-02-28T15:21:16;10.00;;;7.07;;
3995;SDS011;2012;49.794;9.722;2023-02-28T15:23:49;11.10;;;7.70;;
3995;SDS011;2012;49.794;9.722;2023-02-28T15:26:25;12.10;;;7.40;;
3995;SDS011;2012;49.794;9.722;2023-02-28T15:29:00;9.03;;;7.17;;
3995;SDS011;2012;49.794;9.722;2023-02-28T15:31:34;8.97;;;6.83;;
3995;SDS011;2012;49.794;9.722;2023-02-28T15:34:25;13.33;;;7.53;;
3995;SDS011;2012;49.794;9.722;2023-02-28T15:37:06;11.60;;;8.10;;
3995;SDS011;2012;49.794;9.722;2023-02-28T15:39:53;13.80;;;7.80;;
3995;SDS011;2012;49.794;9.722;2023-02-28T15:42:22;9.20;;;7.07;;
3995;SDS011;2012;49.794;9.722;2023-02-28T15:44:55;9.70;;;7.23;;
3995;SDS011;2012;49.794;9.722;2023-02-28T15:47:24;10.20;;;7.43;;
3995;SDS011;2012;49.794;9.722;2023-02-28T15:49:57;13.13;;;7.30;;
3995;SDS011;2012;49.794;9.722;2023-02-28T15:52:28;11.40;;;8.43;;
3995;SDS011;2012;49.794;9.722;2023-02-28T15:54:55;13.80;;;7.80;;
3995;SDS011;2012;49.794;9.722;2023-02-28T15:57:25;13.90;;;7.83;;
3995;SDS011;2012;49.794;9.722;2023-02-28T15:59:57;9.90;;;7.30;;
3995;SDS011;2012;49.794;9.722;2023-02-28T16:07:27;12.10;;;7.93;;
3995;SDS011;2012;49.794;9.722;2023-02-28T16:09:55;15.27;;;7.40;;
3995;SDS011;2012;49.794;9.722;2023-02-28T16:12:24;17.43;;;10.47;;
3995;SDS011;2012;49.794;9.722;2023-02-28T16:14:53;22.77;;;11.43;;
3995;SDS011;2012;49.794;9.722;2023-02-28T16:17:22;21.43;;;12.03;;
3995;SDS011;2012;49.794;9.722;2023-02-28T16:19:52;24.07;;;10.60;;
3995;SDS011;2012;49.794;9.722;2023-02-28T16:22:19;19.13;;;11.50;;
3995;SDS011;2012;49.794;9.722;2023-02-28T16:24:46;22.07;;;12.07;;
3995;SDS011;2012;49.794;9.722;2023-02-28T16:27:18;30.53;;;11.43;;
3995;SDS011;2012;49.794;9.722;2023-02-28T16:29:51;17.83;;;8.70;;
3995;SDS011;2012;49.794;9.722;2023-02-28T16:32:18;9.70;;;6.80;;
3995;SDS011;2012;49.794;9.722;2023-02-28T16:34:45;11.23;;;7.50;;
3995;SDS011;2012;49.794;9.722;2023-02-28T16:37:13;12.63;;;8.73;;
3995;SDS011;2012;49.794;9.722;2023-02-28T16:39:42;17.63;;;11.00;;
3995;SDS011;2012;49.794;9.722;2023-02-28T16:42:23;17.73;;;10.37;;
3995;SDS011;2012;49.794;9.722;2023-02-28T16:44:53;25.10;;;14.07;;
3995;SDS011;2012;49.794;9.722;2023-02-28T16:47:21;29.13;;;14.43;;
3995;SDS011;2012;49.794;9.722;2023-02-28T16:49:48;22.70;;;12.90;;
3995;SDS011;2012;49.794;9.722;2023-02-28T16:52:14;17.37;;;10.57;;
3995;SDS011;2012;49.794;9.722;2023-02-28T16:54:41;27.47;;;11.73;;
3995;SDS011;2012;49.794;9.722;2023-02-28T16:57:42;13.40;;;8.30;;
3995;SDS011;2012;49.794;9.722;2023-02-28T17:00:02;13.10;;;9.33;;
3995;SDS011;2012;49.794;9.722;2023-02-28T17:02:30;11.43;;;8.47;;
3995;SDS011;2012;49.794;9.722;2023-02-28T17:04:57;11.70;;;8.80;;
3995;SDS011;2012;49.794;9.722;2023-02-28T17:07:24;17.20;;;10.13;;
3995;SDS011;2012;49.794;9.722;2023-02-28T17:09:51;20.83;;;12.40;;
3995;SDS011;2012;49.794;9.722;2023-02-28T17:12:18;24.57;;;13.97;;
3995;SDS011;2012;49.794;9.722;2023-02-28T17:14:44;23.33;;;13.93;;
3995;SDS011;2012;49.794;9.722;2023-02-28T17:17:18;22.77;;;13.17;;
3995;SDS011;2012;49.794;9.722;2023-02-28T17:19:47;17.73;;;12.50;;
3995;SDS011;2012;49.794;9.722;2023-02-28T17:22:14;22.23;;;13.17;;
3995;SDS011;2012;49.794;9.722;2023-02-28T17:24:41;18.17;;;12.77;;
3995;SDS011;2012;49.794;9.722;2023-02-28T17:27:09;19.60;;;12.97;;
3995;SDS011;2012;49.794;9.722;2023-02-28T17:29:39;22.27;;;11.50;;
3995;SDS011;2012;49.794;9.722;2023-02-28T17:32:06;17.63;;;11.33;;
3995;SDS011;2012;49.794;9.722;2023-02-28T17:34:43;14.63;;;10.63;;
3995;SDS011;2012;49.794;9.722;2023-02-28T17:37:10;13.37;;;10.40;;
3995;SDS011;2012;49.794;9.722;2023-02-28T17:39:37;20.93;;;10.97;;
3995;SDS011;2012;49.794;9.722;2023-02-28T17:42:04;13.70;;;9.60;;
3995;SDS011;2012;49.794;9.722;2023-02-28T17:44:30;31.30;;;11.10;;
3995;SDS011;2012;49.794;9.722;2023-02-28T17:46:58;14.83;;;9.83;;
3995;SDS011;2012;49.794;9.722;2023-02-28T17:49:25;22.27;;;11.83;;
3995;SDS011;2012;49.794;9.722;2023-02-28T17:51:53;18.43;;;9.80;;
3995;SDS011;2012;49.794;9.722;2023-02-28T17:54:19;18.43;;;10.70;;
3995;SDS011;2012;49.794;9.722;2023-02-28T17:56:46;12.50;;;8.80;;
3995;SDS011;2012;49.794;9.722;2023-02-28T17:59:13;15.23;;;10.00;;
3995;SDS011;2012;49.794;9.722;2023-02-28T18:01:40;16.00;;;10.03;;
3995;SDS011;2012;49.794;9.722;2023-02-28T18:04:06;14.33;;;10.10;;
3995;SDS011;2012;49.794;9.722;2023-02-28T18:06:34;12.80;;;9.50;;
3995;SDS011;2012;49.794;9.722;2023-02-28T18:09:12;19.43;;;8.60;;